Terminal Aerodrome Forecast
Issued by NWS Brownsville, TX

Current Version | Previous Version | Text Only | Print | Product List | Glossary Off
Versions: 1 2 3 4 5 6 7 8 9 10 11 12 13 14 15 16 17 18 19 20 21 22

000
FTUS44 KBRO 282300 RRA
TAFBRO
TAF
KBRO 282346Z 2900/2924 15006KT P6SM SKC
     FM290830 16006KT 5SM BR BKN010
     FM291500 16019G25KT P6SM BKN035=

USA.gov is the U.S. government's official web portal to all federal, state and local government web resources and services.